Time;durP1;ratioP1;P1;durP2;ratioP2;P2;SDS_P1;SDS_P2;PMS_P1;PMS_P2;Temp;Humidity;BMP_temperature;BMP_pressure;BME280_temperature;BME280_humidity;BME280_pressure;Samples;Min_cycle;Max_cycle;Signal;HPM_P1;HPM_P2
2022/04/18 00:00:07;;;;;;;2.38;2.00;;;;;;;12.84;37.52;100372.88;4985163;28;20038;-79
2022/04/18 00:02:34;;;;;;;3.25;2.40;;;;;;;12.81;37.60;100364.19;4968176;28;20585;-79
2022/04/18 00:05:01;;;;;;;5.00;2.72;;;;;;;12.81;37.94;100363.34;4961703;28;20183;-79
2022/04/18 00:07:29;;;;;;;4.35;2.20;;;;;;;12.79;37.73;100360.81;4989039;28;20054;-79
2022/04/18 00:09:56;;;;;;;4.07;2.63;;;;;;;12.77;37.89;100357.47;4988615;28;20060;-80
2022/04/18 00:12:22;;;;;;;2.90;1.92;;;;;;;12.74;37.73;100359.53;4987644;28;20126;-79
2022/04/18 00:14:49;;;;;;;2.67;1.90;;;;;;;12.73;37.94;100364.03;4984490;28;20097;-80
2022/04/18 00:17:16;;;;;;;4.03;2.30;;;;;;;12.71;37.86;100357.16;4989945;28;20068;-79
2022/04/18 00:19:42;;;;;;;2.70;2.03;;;;;;;12.69;37.99;100357.28;4988940;28;20050;-79
2022/04/18 00:22:09;;;;;;;3.10;2.28;;;;;;;12.65;37.88;100349.72;4984111;28;20081;-80
2022/04/18 00:24:36;;;;;;;3.10;2.13;;;;;;;12.63;38.12;100357.84;4986192;28;20042;-79
2022/04/18 00:27:03;;;;;;;3.00;2.40;;;;;;;12.63;38.50;100351.66;4968219;28;20038;-80
2022/04/18 00:29:31;;;;;;;3.15;2.28;;;;;;;12.59;38.24;100353.75;4986079;28;20046;-79
2022/04/18 00:31:57;;;;;;;3.15;2.33;;;;;;;12.58;38.25;100354.72;4984168;28;20509;-79
2022/04/18 00:34:25;;;;;;;3.60;2.25;;;;;;;12.56;38.81;100343.38;4997666;28;20053;-80
2022/04/18 00:36:51;;;;;;;4.07;2.50;;;;;;;12.54;38.79;100346.19;4973594;28;20038;-79
2022/04/18 00:39:18;;;;;;;5.47;2.58;;;;;;;12.53;38.73;100352.47;4987866;28;20072;-79
2022/04/18 00:41:45;;;;;;;3.47;2.25;;;;;;;12.51;39.20;100346.44;5003718;28;20041;-79
2022/04/18 00:44:12;;;;;;;5.00;2.60;;;;;;;12.48;38.94;100344.03;4982311;28;20042;-80
2022/04/18 00:46:39;;;;;;;3.60;2.20;;;;;;;12.46;38.79;100346.00;4981897;28;20052;-79
2022/04/18 00:49:05;;;;;;;3.67;2.03;;;;;;;12.45;38.87;100343.50;4998188;28;20050;-79
2022/04/18 00:51:32;;;;;;;3.47;2.22;;;;;;;12.43;38.74;100340.09;4965306;28;20042;-80
2022/04/18 00:53:59;;;;;;;4.35;2.58;;;;;;;12.40;38.92;100333.22;4985099;28;20137;-79
2022/04/18 00:56:26;;;;;;;3.28;2.05;;;;;;;12.39;38.69;100342.22;4979664;28;20059;-79
2022/04/18 00:58:53;;;;;;;2.45;1.83;;;;;;;12.36;37.98;100340.66;4998484;28;20077;-80
2022/04/18 01:01:20;;;;;;;2.55;1.90;;;;;;;12.37;37.69;100339.66;4968860;28;20066;-79
2022/04/18 01:03:51;;;;;;;3.00;1.95;;;;;;;12.35;36.87;100338.13;4983217;28;20073;-84
2022/04/18 01:06:18;;;;;;;4.35;2.65;;;;;;;12.30;37.15;100341.19;4967492;28;20053;-84
2022/04/18 01:08:47;;;;;;;2.40;1.92;;;;;;;12.27;37.22;100328.16;4984089;28;20122;-84
2022/04/18 01:11:14;;;;;;;4.00;2.03;;;;;;;12.28;37.60;100334.31;4984842;28;20050;-80
2022/04/18 01:14:02;;;;;;;2.60;1.90;;;;;;;12.26;37.91;100338.91;4983940;28;20125;-80
2022/04/18 01:16:52;;;;;;;2.20;1.90;;;;;;;12.22;38.14;100330.38;4921758;28;20048;-80
2022/04/18 01:19:39;;;;;;;2.10;1.80;;;;;;;12.20;38.54;100327.00;4929054;28;20442;-80
2022/04/18 01:22:24;;;;;;;4.32;2.50;;;;;;;12.19;38.24;100325.31;4970435;28;20050;-81
2022/04/18 01:30:44;;;;;;;3.47;2.15;;;;;;;12.04;38.71;100318.66;4986178;28;20042;-81
2022/04/18 01:33:11;;;;;;;5.60;2.20;;;;;;;12.02;39.35;100309.97;4998633;28;20512;-81
2022/04/18 01:35:39;;;;;;;3.63;2.00;;;;;;;12.03;39.49;100325.78;4985030;28;20125;-81
2022/04/18 01:38:07;;;;;;;3.22;2.00;;;;;;;12.00;39.62;100318.06;4984283;28;20449;-81
2022/04/18 01:40:34;;;;;;;4.15;2.40;;;;;;;11.99;39.46;100311.06;4966243;28;20121;-81
2022/04/18 01:43:00;;;;;;;2.97;2.08;;;;;;;11.98;39.32;100306.72;4982348;28;20494;-81
2022/04/18 01:45:27;;;;;;;4.00;2.35;;;;;;;11.97;39.23;100304.19;4970073;28;20090;-81
2022/04/18 01:48:07;;;;;;;3.70;2.30;;;;;;;11.94;39.12;100307.97;4981401;28;20074;-81
2022/04/18 01:50:34;;;;;;;2.58;2.00;;;;;;;11.92;39.36;100305.44;4970663;28;20050;-81
2022/04/18 01:53:01;;;;;;;3.30;2.40;;;;;;;11.91;39.33;100309.09;4972275;28;20112;-85
2022/04/18 01:55:28;;;;;;;4.65;2.05;;;;;;;11.88;39.34;100312.00;4985812;28;20698;-85
2022/04/18 01:57:57;;;;;;;2.45;2.05;;;;;;;11.88;39.47;100301.38;4970348;28;20129;-85
2022/04/18 02:00:25;;;;;;;3.63;2.38;;;;;;;11.86;39.80;100295.34;4986434;28;20074;-85
2022/04/18 02:02:54;;;;;;;3.92;2.50;;;;;;;11.85;39.70;100303.41;4986515;28;20433;-84
2022/04/18 02:05:21;;;;;;;3.97;2.05;;;;;;;11.83;39.85;100300.91;4986493;28;20533;-84
2022/04/18 02:07:49;;;;;;;4.65;2.47;;;;;;;11.83;39.65;100297.38;5003328;28;20047;-85
2022/04/18 02:10:16;;;;;;;4.95;2.38;;;;;;;11.83;39.60;100297.38;4985097;28;20454;-85
2022/04/18 02:12:42;;;;;;;5.93;2.38;;;;;;;11.80;39.75;100295.81;4966388;28;20046;-84
2022/04/18 02:15:10;;;;;;;3.67;2.38;;;;;;;11.79;39.37;100294.13;4966026;28;20047;-85
2022/04/18 02:17:53;;;;;;;3.45;2.40;;;;;;;11.76;39.26;100290.91;4944705;28;20105;-84
2022/04/18 02:20:20;;;;;;;5.75;2.40;;;;;;;11.76;39.03;100293.56;4971696;28;20046;-85
2022/04/18 02:22:47;;;;;;;5.85;3.15;;;;;;;11.73;39.04;100287.53;4972261;28;20050;-85
2022/04/18 02:25:15;;;;;;;3.40;2.78;;;;;;;11.74;39.60;100296.34;4985084;28;20445;-84
2022/04/18 02:27:43;;;;;;;3.75;2.50;;;;;;;11.71;39.60;100289.47;4954512;28;20062;-85
2022/04/18 02:30:11;;;;;;;4.13;2.80;;;;;;;11.68;39.91;100289.75;4968064;28;20054;-85
2022/04/18 02:32:47;;;;;;;4.93;2.92;;;;;;;11.66;39.69;100291.69;4972767;28;20077;-85
2022/04/18 02:35:24;;;;;;;3.42;2.53;;;;;;;11.51;40.30;100295.66;4984124;28;20046;-85
2022/04/18 02:37:55;;;;;;;3.20;2.67;;;;;;;11.58;40.04;100296.00;4946928;28;20057;-85
2022/04/18 02:40:35;;;;;;;3.63;2.17;;;;;;;11.54;39.94;100291.91;4967211;28;20049;-82
2022/04/18 02:43:02;;;;;;;3.38;2.35;;;;;;;11.52;40.04;100292.88;4967132;28;20047;-85
2022/04/18 02:45:31;;;;;;;3.33;2.90;;;;;;;11.50;40.12;100294.00;4967769;28;20065;-85
2022/04/18 02:48:18;;;;;;;2.85;2.40;;;;;;;11.45;40.25;100291.72;4984670;28;20054;-84
2022/04/18 02:50:48;;;;;;;4.82;2.83;;;;;;;11.41;40.61;100290.28;5002999;28;20046;-84
2022/04/18 02:53:22;;;;;;;3.60;2.28;;;;;;;11.40;40.43;100288.59;4987811;28;20070;-85
2022/04/18 02:55:54;;;;;;;3.05;2.50;;;;;;;11.36;40.61;100289.81;4979695;28;20051;-85
2022/04/18 02:58:21;;;;;;;4.72;2.40;;;;;;;11.33;41.10;100284.78;4982881;28;20080;-85
2022/04/18 03:00:49;;;;;;;4.72;2.58;;;;;;;11.28;41.08;100282.50;4954762;28;20049;-84
2022/04/18 03:03:15;;;;;;;3.15;2.47;;;;;;;11.27;40.86;100279.94;4953099;28;20453;-85
2022/04/18 03:05:43;;;;;;;4.38;3.28;;;;;;;11.24;41.36;100266.91;4986112;28;20046;-85
2022/04/18 03:08:11;;;;;;;3.08;2.38;;;;;;;11.20;41.02;100260.19;4986681;28;20062;-85
2022/04/18 03:13:28;;;;;;;3.75;2.50;;;;;;;11.17;41.48;100257.78;4950093;28;20043;-85
2022/04/18 03:15:56;;;;;;;3.72;2.65;;;;;;;11.15;41.51;100255.25;4970713;28;20494;-85
2022/04/18 03:18:24;;;;;;;4.78;2.47;;;;;;;11.14;41.50;100250.91;4969078;28;20042;-85
2022/04/18 03:20:52;;;;;;;3.92;2.50;;;;;;;11.12;41.71;100252.88;5002188;28;20494;-84
2022/04/18 03:23:19;;;;;;;4.97;3.08;;;;;;;11.10;41.83;100240.69;4965098;28;20050;-85
2022/04/18 03:26:07;;;;;;;4.43;2.95;;;;;;;11.07;42.13;100247.94;4912798;28;20154;-85
2022/04/18 03:28:44;;;;;;;5.13;2.90;;;;;;;11.07;42.10;100241.78;4966066;28;20109;-85
2022/04/18 03:31:12;;;;;;;4.68;2.80;;;;;;;11.04;42.67;100248.19;4979822;28;20046;-85
2022/04/18 03:33:39;;;;;;;5.07;2.92;;;;;;;11.01;42.52;100248.44;4971308;28;20110;-85
2022/04/18 03:41:41;;;;;;;3.20;2.47;;;;;;;10.90;42.62;100245.84;4969774;28;20121;-85
2022/04/18 03:44:09;;;;;;;5.38;3.05;;;;;;;10.89;42.61;100243.28;4990132;28;20056;-85
2022/04/18 03:46:35;;;;;;;4.38;2.78;;;;;;;10.86;42.37;100239.09;4967225;28;20046;-85
2022/04/18 03:49:04;;;;;;;4.85;3.55;;;;;;;10.84;41.97;100241.88;4985909;28;20422;-85
2022/04/18 03:51:33;;;;;;;4.88;2.85;;;;;;;10.85;41.51;100234.75;4952948;28;20046;-84
2022/04/18 03:54:00;;;;;;;5.70;3.25;;;;;;;10.83;40.96;100242.00;4954832;28;20056;-85
2022/04/18 03:56:30;;;;;;;3.40;2.47;;;;;;;10.81;41.32;100231.53;4940502;28;20070;-85
2022/04/18 03:59:09;;;;;;;5.70;3.03;;;;;;;10.82;41.56;100235.84;4978391;28;20050;-84
2022/04/18 04:01:54;;;;;;;4.93;2.70;;;;;;;10.79;41.48;100236.09;4985251;28;20430;-85
2022/04/18 04:04:21;;;;;;;6.20;2.90;;;;;;;10.76;41.59;100240.81;4979134;28;20101;-85
2022/04/18 04:06:50;;;;;;;6.53;2.83;;;;;;;10.69;41.76;100243.16;4986317;28;20405;-86
2022/04/18 04:09:17;;;;;;;4.07;3.05;;;;;;;10.65;41.72;100242.53;4975076;28;20064;-84
2022/04/18 04:11:44;;;;;;;4.00;2.65;;;;;;;10.64;41.92;100245.34;4974351;28;20453;-85
2022/04/18 04:14:11;;;;;;;4.35;2.60;;;;;;;10.63;42.39;100239.19;4989724;28;20516;-85
2022/04/18 04:16:38;;;;;;;4.38;3.17;;;;;;;10.62;42.29;100242.81;4967463;28;20082;-82
2022/04/18 04:19:06;;;;;;;4.03;2.65;;;;;;;10.60;42.45;100235.94;4973625;28;20398;-86
2022/04/18 04:21:37;;;;;;;4.72;2.65;;;;;;;10.55;42.76;100233.66;4986615;28;20629;-80
2022/04/18 04:24:06;;;;;;;3.22;2.30;;;;;;;10.52;42.62;100235.72;4985748;28;20109;-80
2022/04/18 04:26:44;;;;;;;4.60;2.90;;;;;;;10.50;42.59;100232.34;4963459;28;20507;-80
2022/04/18 04:29:13;;;;;;;6.10;2.63;;;;;;;10.48;42.80;100231.63;4987605;28;20049;-80
2022/04/18 04:32:00;;;;;;;3.92;3.03;;;;;;;10.45;42.94;100232.72;4949120;28;20046;-80
2022/04/18 04:34:30;;;;;;;2.95;2.65;;;;;;;10.43;42.74;100230.19;4994564;28;20463;-80
2022/04/18 04:37:15;;;;;;;4.15;3.17;;;;;;;10.40;42.78;100227.78;4986458;28;20049;-80
2022/04/18 04:39:45;;;;;;;6.70;3.00;;;;;;;10.38;42.64;100228.88;4968294;28;20093;-80
2022/04/18 04:42:12;;;;;;;3.60;2.97;;;;;;;10.38;42.99;100223.56;4980073;28;20387;-81
2022/04/18 04:44:42;;;;;;;5.07;2.72;;;;;;;10.36;42.96;100229.00;4970696;28;20454;-80
2022/04/18 04:47:11;;;;;;;9.68;2.88;;;;;;;10.35;43.15;100229.13;4984348;28;20070;-80
2022/04/18 04:49:39;;;;;;;5.10;3.03;;;;;;;10.32;43.06;100224.91;4983172;28;20525;-80
2022/04/18 04:52:19;;;;;;;4.05;2.70;;;;;;;10.29;43.44;100226.97;4952718;28;20049;-80
2022/04/18 04:54:49;;;;;;;4.53;2.97;;;;;;;10.25;43.22;100226.34;4982394;28;20050;-80
2022/04/18 04:57:21;;;;;;;4.50;2.70;;;;;;;10.23;43.22;100236.25;4952938;28;20413;-80
2022/04/18 05:00:07;;;;;;;6.25;2.95;;;;;;;10.19;43.44;100229.50;4976016;28;20049;-80
2022/04/18 05:02:57;;;;;;;7.63;3.55;;;;;;;10.14;44.10;100227.22;4981949;28;20137;-79
2022/04/18 05:05:24;;;;;;;3.85;2.83;;;;;;;10.17;43.85;100226.13;4982238;28;20049;-80
2022/04/18 05:07:51;;;;;;;5.13;2.88;;;;;;;10.16;44.07;100227.94;4979723;28;20165;-80
2022/04/18 05:10:20;;;;;;;4.32;3.05;;;;;;;10.15;44.25;100233.34;4970151;28;20468;-80
2022/04/18 05:12:47;;;;;;;5.97;2.90;;;;;;;10.14;43.52;100226.38;4986737;28;20552;-80
2022/04/18 05:15:19;;;;;;;5.07;2.80;;;;;;;10.10;44.98;100225.78;4972113;28;20064;-80
2022/04/18 05:18:09;;;;;;;6.13;3.20;;;;;;;10.16;44.75;100229.75;4953552;28;20520;-80
2022/04/18 05:20:36;;;;;;;5.90;2.88;;;;;;;10.20;44.83;100226.72;4954966;28;20402;-80
2022/04/18 05:23:02;;;;;;;4.10;3.03;;;;;;;10.25;43.94;100221.03;4941266;28;20049;-80
2022/04/18 05:25:30;;;;;;;3.58;2.67;;;;;;;10.28;43.54;100225.28;4966261;28;20140;-80
2022/04/18 05:27:57;;;;;;;4.15;2.78;;;;;;;10.28;42.43;100227.94;4989681;28;20042;-80
2022/04/18 05:30:36;;;;;;;3.88;2.90;;;;;;;10.33;43.77;100231.06;4946022;28;20046;-80
2022/04/18 05:33:03;;;;;;;8.90;3.30;;;;;;;10.32;43.43;100229.38;4983218;28;20069;-80
2022/04/18 05:35:40;;;;;;;3.75;2.60;;;;;;;10.32;42.69;100221.41;4975447;28;20653;-80
2022/04/18 05:38:06;;;;;;;6.70;3.15;;;;;;;10.14;42.78;100221.06;4984303;28;20371;-80
2022/04/18 05:40:39;;;;;;;5.93;3.07;;;;;;;10.26;43.23;100225.38;4966587;28;20046;-80
2022/04/18 05:43:06;;;;;;;4.97;2.75;;;;;;;10.32;43.20;100227.56;4964410;28;20104;-80
2022/04/18 05:45:34;;;;;;;4.55;2.95;;;;;;;10.32;43.51;100227.56;4988190;28;20046;-80
2022/04/18 05:48:07;;;;;;;6.53;2.90;;;;;;;10.35;43.08;100229.97;4972625;28;20042;-80
2022/04/18 05:50:47;;;;;;;3.80;2.47;;;;;;;10.29;43.11;100234.94;4977310;28;20061;-80
2022/04/18 05:53:28;;;;;;;3.28;2.38;;;;;;;10.35;41.83;100235.28;4987332;28;20469;-80
2022/04/18 05:56:20;;;;;;;4.47;2.72;;;;;;;10.40;41.71;100232.25;4963579;28;20043;-80
2022/04/18 05:58:56;;;;;;;3.88;2.53;;;;;;;10.34;41.11;100236.25;4960802;28;20055;-80
2022/04/18 06:01:42;;;;;;;3.88;2.45;;;;;;;10.41;40.87;100234.78;4998549;28;20045;-79
2022/04/18 06:04:14;;;;;;;4.97;2.55;;;;;;;10.34;40.76;100233.59;4908888;28;20051;-79
2022/04/18 06:06:49;;;;;;;4.38;2.40;;;;;;;10.22;41.46;100230.06;4963544;28;20513;-80
2022/04/18 06:09:18;;;;;;;7.20;2.75;;;;;;;10.22;41.29;100224.78;4974510;28;20151;-80
2022/04/18 06:11:44;;;;;;;4.20;2.60;;;;;;;10.32;40.63;100234.69;5000219;28;20046;-80
2022/04/18 06:14:20;;;;;;;6.35;2.80;;;;;;;10.31;40.77;100230.38;5005640;28;20108;-80
2022/04/18 06:16:49;;;;;;;5.00;2.80;;;;;;;10.31;40.58;100225.06;4963154;28;20069;-80
2022/04/18 06:19:19;;;;;;;5.10;2.30;;;;;;;10.36;40.43;100230.81;4976617;28;20101;-80
2022/04/18 06:21:48;;;;;;;5.95;2.88;;;;;;;10.30;41.11;100231.31;5003441;28;20069;-80
2022/04/18 06:24:16;;;;;;;4.45;2.38;;;;;;;10.35;40.56;100222.00;4954717;28;20055;-80
2022/04/18 06:27:04;;;;;;;3.72;2.58;;;;;;;10.30;40.83;100223.34;4969643;28;20077;-80
2022/04/18 06:29:33;;;;;;;3.47;2.60;;;;;;;10.36;40.90;100218.41;5006760;28;20134;-80
2022/04/18 06:32:01;;;;;;;4.32;2.20;;;;;;;10.36;40.81;100214.91;4973327;28;20105;-80
2022/04/18 06:34:30;;;;;;;3.67;2.70;;;;;;;10.21;41.71;100212.47;4954724;28;20042;-80
2022/04/18 06:37:06;;;;;;;3.72;2.75;;;;;;;10.28;41.48;100218.19;4979696;28;20053;-80
2022/04/18 06:39:56;;;;;;;7.60;4.40;;;;;;;10.37;41.70;100219.22;4942039;28;20355;-80
2022/04/18 06:42:58;;;;;;;5.15;2.38;;;;;;;10.07;42.32;100218.03;4991371;28;20043;-80
2022/04/18 06:45:31;;;;;;;3.25;2.45;;;;;;;10.34;41.72;100214.19;4892695;28;20046;-83
2022/04/18 06:47:59;;;;;;;5.03;2.33;;;;;;;10.36;41.62;100214.91;4951039;28;20549;-84
2022/04/18 06:50:45;;;;;;;4.47;2.45;;;;;;;10.39;41.41;100214.66;4941327;28;20050;-82
2022/04/18 06:53:45;;;;;;;5.32;2.80;;;;;;;10.38;42.33;100213.81;4950536;28;20379;-82
2022/04/18 06:59:24;;;;;;;4.55;2.40;;;;;;;10.43;41.89;100214.28;4972030;28;20039;-81
2022/04/18 07:01:51;;;;;;;5.53;2.85;;;;;;;10.53;41.40;100213.50;4969663;28;20076;-82
2022/04/18 07:04:18;;;;;;;6.32;2.95;;;;;;;10.45;41.94;100218.59;4972816;28;20141;-82
2022/04/18 07:06:45;;;;;;;6.25;2.55;;;;;;;10.51;42.08;100207.50;4971059;28;20074;-82
2022/04/18 07:09:14;;;;;;;3.22;2.60;;;;;;;10.53;41.57;100216.16;4955344;28;20050;-82
2022/04/18 07:11:50;;;;;;;4.93;2.95;;;;;;;10.60;41.82;100215.53;4999394;28;20050;-82
2022/04/18 07:14:23;;;;;;;7.80;2.70;;;;;;;10.58;41.87;100220.16;4971743;28;20062;-82
2022/04/18 07:16:53;;;;;;;5.50;2.80;;;;;;;10.60;41.33;100212.03;4971281;28;20773;-81
2022/04/18 07:19:25;;;;;;;7.20;2.67;;;;;;;10.60;41.41;100214.69;4976167;28;20054;-84
2022/04/18 07:21:55;;;;;;;5.10;2.97;;;;;;;10.57;41.91;100218.44;4953904;28;20046;-84
2022/04/18 07:24:23;;;;;;;5.50;2.75;;;;;;;10.52;41.57;100217.13;4971208;28;20496;-84
2022/04/18 07:26:53;;;;;;;6.22;2.67;;;;;;;10.56;41.76;100214.09;4950416;28;20059;-83
2022/04/18 07:29:22;;;;;;;4.93;2.55;;;;;;;10.66;41.17;100208.88;5004996;28;20524;-84
2022/04/18 07:31:49;;;;;;;5.00;2.45;;;;;;;10.60;41.38;100201.41;4956840;28;20046;-82
2022/04/18 07:34:16;;;;;;;4.82;3.03;;;;;;;10.70;41.53;100201.50;4958705;28;20109;-81
2022/04/18 07:36:44;;;;;;;4.20;2.60;;;;;;;10.70;41.47;100207.66;4986277;28;20057;-80
2022/04/18 07:39:12;;;;;;;3.90;3.20;;;;;;;10.76;41.93;100211.59;4966868;28;20065;-80
2022/04/18 07:41:46;;;;;;;5.53;2.97;;;;;;;10.78;41.87;100207.84;4985554;28;20071;-80
2022/04/18 07:44:13;;;;;;;5.53;2.92;;;;;;;10.86;41.02;100209.84;4953484;28;20047;-80
2022/04/18 07:46:40;;;;;;;5.85;3.40;;;;;;;10.75;41.77;100215.25;5004657;28;20069;-81
2022/04/18 07:49:13;;;;;;;5.35;3.15;;;;;;;10.84;41.67;100211.81;4982374;28;20133;-81
2022/04/18 07:51:45;;;;;;;5.90;3.25;;;;;;;10.91;41.31;100220.94;4970955;28;20061;-81
2022/04/18 07:54:27;;;;;;;4.35;2.80;;;;;;;10.92;41.95;100212.03;4975482;28;20055;-81
2022/04/18 07:56:55;;;;;;;5.78;3.60;;;;;;;10.98;40.98;100216.81;4984062;28;20433;-81
2022/04/18 08:00:04;;;;;;;8.32;4.03;;;;;;;10.98;40.93;100213.31;4967186;28;20485;-81
2022/04/18 08:02:40;;;;;;;4.45;3.28;;;;;;;11.01;40.62;100213.88;4915888;28;20042;-81
2022/04/18 08:05:20;;;;;;;5.80;2.85;;;;;;;10.99;40.84;100202.56;4945432;28;20402;-81
2022/04/18 08:07:59;;;;;;;6.10;3.30;;;;;;;11.11;41.42;100207.81;4966699;28;20063;-81
2022/04/18 08:10:26;;;;;;;6.88;3.10;;;;;;;11.00;41.42;100208.72;4949240;28;20047;-81
2022/04/18 08:12:52;;;;;;;5.57;3.40;;;;;;;11.01;41.04;100205.91;4986746;28;20120;-81
2022/04/18 08:15:52;;;;;;;9.38;3.22;;;;;;;11.02;41.08;100206.78;4937235;28;20050;-81
2022/04/18 08:18:49;;;;;;;5.43;3.13;;;;;;;11.09;41.00;100207.91;4951645;28;20082;-80
2022/04/18 08:21:24;;;;;;;6.53;3.58;;;;;;;11.14;41.12;100202.22;4984658;28;20054;-80
2022/04/18 08:23:52;;;;;;;6.03;3.70;;;;;;;11.04;41.49;100211.00;4981209;28;20050;-81
2022/04/18 08:26:45;;;;;;;4.38;2.70;;;;;;;11.14;41.16;100203.06;4947099;28;20556;-81
2022/04/18 08:29:18;;;;;;;6.70;3.60;;;;;;;11.14;41.02;100202.22;4969938;28;20058;-80
2022/04/18 08:32:11;;;;;;;6.88;3.33;;;;;;;11.17;41.63;100200.16;4947770;28;20074;-81
2022/04/18 08:34:40;;;;;;;6.10;3.47;;;;;;;11.24;41.32;100203.97;4964372;28;20046;-80
2022/04/18 08:37:11;;;;;;;6.78;3.72;;;;;;;11.22;41.76;100203.28;4966859;28;20052;-81
2022/04/18 08:39:58;;;;;;;6.13;3.65;;;;;;;11.28;41.32;100201.91;4968668;28;20435;-80
2022/04/18 08:42:30;;;;;;;5.60;3.75;;;;;;;11.27;41.31;100197.53;4948936;28;20053;-82
2022/04/18 08:45:01;;;;;;;7.70;3.60;;;;;;;11.27;41.64;100190.44;4982436;28;20050;-81
2022/04/18 08:53:03;;;;;;;7.30;3.70;;;;;;;11.36;41.34;100191.44;4965435;28;20383;-81
2022/04/18 08:55:33;;;;;;;7.90;3.42;;;;;;;11.42;41.72;100190.06;4947963;28;20069;-81
2022/04/18 08:58:14;;;;;;;6.32;3.75;;;;;;;11.51;40.77;100192.78;4995065;28;20541;-82
2022/04/18 09:00:42;;;;;;;6.50;3.70;;;;;;;11.48;41.02;100185.06;4944672;28;20486;-81
2022/04/18 09:03:28;;;;;;;6.28;3.55;;;;;;;11.49;41.20;100183.25;4952455;28;20046;-81
2022/04/18 09:06:10;;;;;;;5.60;3.53;;;;;;;11.44;41.67;100180.97;4968804;28;20100;-84
2022/04/18 09:08:51;;;;;;;6.65;3.28;;;;;;;11.48;41.16;100185.06;4957549;28;20054;-81
2022/04/18 09:11:32;;;;;;;6.50;3.60;;;;;;;11.47;41.08;100179.88;4985252;28;20038;-82
2022/04/18 09:14:13;;;;;;;5.00;3.28;;;;;;;11.53;41.41;100176.69;4969609;28;20133;-83
2022/04/18 09:16:44;;;;;;;6.40;3.15;;;;;;;11.61;41.09;100171.53;4961433;28;20042;-82
2022/04/18 09:19:23;;;;;;;6.38;3.70;;;;;;;11.64;40.88;100178.41;4986651;28;20129;-82
2022/04/18 09:21:59;;;;;;;6.20;3.78;;;;;;;11.65;40.82;100169.44;4955678;28;20047;-82
2022/04/18 09:24:39;;;;;;;5.63;3.90;;;;;;;11.65;41.00;100170.31;4920789;28;20138;-82
2022/04/18 09:27:24;;;;;;;5.78;3.38;;;;;;;11.72;41.30;100170.59;4933811;28;20046;-82
2022/04/18 09:30:10;;;;;;;5.88;3.63;;;;;;;11.77;40.59;100163.06;4954931;28;20042;-82
2022/04/18 09:33:02;;;;;;;5.70;3.10;;;;;;;11.75;40.15;100159.69;4921017;28;20398;-82
2022/04/18 09:35:50;;;;;;;5.30;3.53;;;;;;;11.75;40.30;100154.34;4952593;28;20113;-82
2022/04/18 09:38:19;;;;;;;4.75;3.22;;;;;;;11.77;40.12;100149.75;4967223;28;20067;-81
2022/04/18 09:41:06;;;;;;;4.55;3.05;;;;;;;11.78;40.13;100147.94;4935601;28;20093;-82
2022/04/18 09:43:41;;;;;;;5.22;3.10;;;;;;;11.79;39.49;100144.31;4979296;28;20477;-82
2022/04/18 09:46:10;;;;;;;5.30;3.72;;;;;;;11.88;39.88;100140.84;4973113;28;20053;-82
2022/04/18 09:48:43;;;;;;;6.38;3.47;;;;;;;11.83;39.38;100135.91;4974336;28;20430;-82
2022/04/18 09:51:22;;;;;;;6.13;3.40;;;;;;;11.81;38.84;100139.69;4972774;28;20445;-82
2022/04/18 09:54:03;;;;;;;6.22;3.47;;;;;;;11.87;38.54;100144.50;4941953;28;20081;-81
2022/04/18 09:56:29;;;;;;;5.43;3.38;;;;;;;11.93;39.05;100138.63;4983510;28;20137;-81
2022/04/18 09:58:58;;;;;;;7.03;3.80;;;;;;;11.99;39.37;100143.41;4988296;28;20042;-81
2022/04/18 10:01:33;;;;;;;4.68;3.03;;;;;;;11.97;39.60;100133.88;4996501;28;20042;-81
2022/04/18 10:04:03;;;;;;;4.97;3.22;;;;;;;12.08;39.99;100139.06;4969600;28;20054;-81
2022/04/18 10:06:31;;;;;;;7.20;3.15;;;;;;;12.06;39.55;100136.56;4982974;28;20057;-83
2022/04/18 10:08:58;;;;;;;4.38;2.97;;;;;;;12.04;39.96;100135.84;4969303;28;20093;-82
2022/04/18 10:11:28;;;;;;;7.90;3.97;;;;;;;12.04;39.55;100127.88;4999372;28;20479;-81
2022/04/18 10:13:55;;;;;;;7.85;4.07;;;;;;;12.08;39.62;100131.91;4993855;28;20105;-82
2022/04/18 10:16:22;;;;;;;7.05;3.45;;;;;;;12.15;38.74;100132.22;4982086;28;20053;-82
2022/04/18 10:18:54;;;;;;;5.68;3.30;;;;;;;12.07;38.86;100127.59;4984235;28;20049;-82
2022/04/18 10:21:31;;;;;;;5.18;3.58;;;;;;;12.05;39.24;100126.03;4936648;28;20053;-82
2022/04/18 10:24:02;;;;;;;5.70;3.17;;;;;;;12.11;38.50;100126.34;4967749;28;20080;-81
2022/04/18 10:27:08;;;;;;;8.07;3.17;;;;;;;11.98;38.85;100114.25;4990005;28;20051;-81
2022/04/18 10:29:53;;;;;;;4.55;3.20;;;;;;;12.09;39.26;100112.31;4907285;28;20550;-82
2022/04/18 10:32:22;;;;;;;7.15;2.80;;;;;;;12.20;39.10;100106.00;4947235;28;20051;-82
2022/04/18 10:34:50;;;;;;;3.72;2.80;;;;;;;12.26;39.27;100102.81;4967176;28;20073;-82
2022/04/18 10:37:22;;;;;;;5.55;3.53;;;;;;;12.23;38.99;100097.75;4981154;28;20376;-82
2022/04/18 10:40:00;;;;;;;6.22;3.55;;;;;;;12.17;39.02;100100.97;4968112;28;20050;-82
2022/04/18 10:42:35;;;;;;;5.63;3.75;;;;;;;12.23;39.58;100099.56;4973541;28;20049;-82
2022/04/18 10:45:06;;;;;;;5.50;3.40;;;;;;;12.30;39.96;100093.53;4931125;28;20046;-83
2022/04/18 10:48:06;;;;;;;7.80;4.03;;;;;;;12.23;38.80;100086.25;4967542;28;20049;-83
2022/04/18 10:50:47;;;;;;;5.75;3.65;;;;;;;12.26;39.97;100109.94;4927588;28;20053;-82
2022/04/18 10:53:17;;;;;;;6.78;3.78;;;;;;;12.40;40.22;100087.38;4976385;28;20052;-82
2022/04/18 10:55:53;;;;;;;7.55;4.13;;;;;;;12.35;37.93;100087.81;4956849;28;20053;-83
2022/04/18 10:58:24;;;;;;;6.07;3.88;;;;;;;12.37;38.67;100076.03;4982073;28;20159;-86
2022/04/18 11:00:55;;;;;;;6.45;3.75;;;;;;;12.36;38.78;100071.69;4954162;28;20137;-83
2022/04/18 11:03:38;;;;;;;8.50;4.13;;;;;;;12.34;38.77;100073.66;4977757;28;20054;-83
2022/04/18 11:06:18;;;;;;;6.15;3.70;;;;;;;12.43;39.48;100071.94;4964285;28;20046;-83
2022/04/18 11:09:06;;;;;;;6.63;3.90;;;;;;;12.35;39.12;100072.66;4956911;28;20101;-83
2022/04/18 11:12:00;;;;;;;5.10;3.25;;;;;;;12.41;38.76;100062.41;4938831;28;20125;-81
2022/04/18 11:14:30;;;;;;;7.45;3.00;;;;;;;12.45;39.47;100063.84;4963168;28;20410;-82
2022/04/18 11:16:59;;;;;;;9.10;3.15;;;;;;;12.51;39.13;100058.75;4966040;28;20042;-84
2022/04/18 11:19:30;;;;;;;5.28;3.20;;;;;;;12.52;38.87;100064.94;4971992;28;20046;-82
2022/04/18 11:22:01;;;;;;;6.30;3.40;;;;;;;12.54;39.18;100046.97;4966404;28;20048;-82
2022/04/18 11:24:37;;;;;;;6.15;3.20;;;;;;;12.51;39.01;100041.94;4983200;28;20054;-82
2022/04/18 11:27:09;;;;;;;6.07;4.03;;;;;;;12.62;38.64;100046.25;4952249;28;20079;-82
2022/04/18 11:29:38;;;;;;;4.85;3.22;;;;;;;12.85;37.77;100044.09;4982266;28;20038;-82
2022/04/18 11:32:06;;;;;;;6.28;3.42;;;;;;;12.89;37.12;100035.66;4986549;28;20050;-82
2022/04/18 11:34:35;;;;;;;5.28;3.13;;;;;;;12.89;37.78;100041.00;4972104;28;20046;-82
2022/04/18 11:37:05;;;;;;;5.28;2.65;;;;;;;12.95;37.10;100029.78;4985442;28;20138;-82
2022/04/18 11:39:46;;;;;;;7.13;3.30;;;;;;;12.95;38.09;100036.91;4999175;28;20736;-82
2022/04/18 11:42:17;;;;;;;3.47;2.60;;;;;;;13.13;37.25;100043.16;4973440;28;20058;-82
2022/04/18 11:44:45;;;;;;;6.30;3.50;;;;;;;13.04;36.96;100026.19;4969916;28;20468;-82
2022/04/18 11:47:19;;;;;;;5.20;3.10;;;;;;;13.08;37.13;100023.25;4982528;28;20466;-82
2022/04/18 11:49:46;;;;;;;6.03;3.13;;;;;;;13.00;37.27;100015.97;4987397;28;20453;-82
2022/04/18 11:52:27;;;;;;;4.53;3.00;;;;;;;13.04;36.53;100018.22;4954021;28;20101;-82
2022/04/18 11:55:04;;;;;;;4.57;2.60;;;;;;;13.08;37.82;100012.56;4977561;28;20046;-82
2022/04/18 11:57:36;;;;;;;4.45;2.67;;;;;;;13.13;37.29;100018.34;4980627;28;20118;-83
2022/04/18 12:00:09;;;;;;;3.88;2.53;;;;;;;13.30;36.46;100008.72;4949318;28;20053;-82
2022/04/18 12:08:18;;;;;;;7.68;2.92;;;;;;;13.32;36.86;99996.06;4990262;28;20072;-83
2022/04/18 12:10:45;;;;;;;4.00;2.70;;;;;;;13.29;37.03;99993.72;4972406;28;20049;-83
2022/04/18 12:13:14;;;;;;;4.53;2.67;;;;;;;13.27;36.61;99993.84;4967325;28;20054;-84
2022/04/18 12:15:42;;;;;;;5.47;2.85;;;;;;;13.43;37.50;99996.72;4984145;28;20478;-83
2022/04/18 12:18:17;;;;;;;5.03;2.67;;;;;;;13.28;36.73;99995.53;4985905;28;20100;-84